VTSH  Songkhla  Airport

Thailand

Add Bookmark
Status IATA
Operational SGZ
Latitude Longitude
7° 11' 11" N 100° 36' 28" E
7.186560 100.608002
Local (DST + 7) UTC (GMT + 7)
Mar 30, 2015 09:19 Mar 30, 2015 02:19
Sunrise-Sunset Local UTC
Begin Civil Twilight 05:54 22:54
Sunrise 06:15 23:15
Sunset 06:28 11:28
End Civil Twilight 06:49 11:49

Current Weather

METAR Observed MVFR
VTSH 300200Z 09008KT 8000 FEW020 SCT120 BKN300 30/25 Q1012 A2989 Mon, Mar 30, 2015 @ 02:00 UTC
(19 Minutes ago)
Marginal Visual Flight Rules
Wind Visibility Clouds Conditions
090° at 8 knots (15 kph) 8000 meters
  • Few at 2,000' AGL
  • Scattered at 12,000' AGL
  • Broken at 30,000' AGL
  • No significant weather
Temperatures Readings Precipitation
Current Temp 30°C (86°F)
Dewpoint 25°C (77°F)
Heat Index 36°C (97°F)
Humidity 75%
Altimeter 29.88"Hg
Sea Level Pressure 1012mb
Field Elevation 16.4'
None Recorded

Additional weather within a 92.6km radius of VTSH

Map ICAO Location
VTSS 36.9km S (220°)

24 Hour Weather History

Loading
-

24 Hour Weather Graphs

Loading
-

CheckWX.com is intended as a tool to help pilots better visualize weather data. It is not intended as a substitute for an official weather briefing obtained from a Flight Service Station. CheckWX.com does not meet the FAA requirements for an official pre-flight weather briefing. Therefore, it's important that pilots still call and obtain an official FSS pre-flight weather briefing.